Terminal Aerodrome Forecast
Issued by NWS

Home | Current Version | Previous Version | Text Only | Print | Product List | Glossary On
Versions: 1 2 3 4 5 6 7 8 9 10 11 12 13 14 15 16 17 18 19 20 21 22
897
FTUS41 KCAR 240912 AAA
TAFBHB
TAF AMD
KBHB 240912Z 2409/2506 07006KT 3/4SM BR OVC003
      TEMPO 2409/2412 1/4SM FG OVC002
     FM241200 09008KT P6SM OVC008
     FM241400 09008KT P6SM OVC015
     FM241800 11008KT P6SM BKN025
     FM242000 13006KT P6SM VCSH OVC025
     FM250000 VRB03KT P6SM VCSH OVC010=

USA.gov is the U.S. government's official web portal to all federal, state and local government web resources and services.